Temp: 17.3°C   Baro: 1010.1mb
  Wind: 6.0mph   Dir: W (263°)
  Rain: 0.8mm (0.0mm/hr)
  Solar: 172W/m2  Hum: 92%
 
Bath Spa Weather Station Historical Data
Daily Summary for November 8, 2019 Units:  Metric    English   Both
Daily Weekly Monthly Yearly Custom
  High: Low: Average:
Temperature: 9.1 °C 0.1 °C 4.7 °C
Dew Point: 5.8 °C -0.9 °C 2.5 °C
Humidity: 95% 73% 86%
Wind Speed: 16.7km/h 0km/h 3.4km/h
Wind Gust: 33.8km/h - -
Wind- - WSW
Pressure: 1013.1 hPa 998.5 hPa -
Precipitation: 0.51 mm    
Historical Graphs
 
 
Tabular Data for November 8, 2019
Time Temperature Dew Point Pressure Wind Wind Speed Wind Gust Humidity Rainfall Rate (Hourly) solar
00:03 1.3 °C 0.3 °C 998.5 hPa Calm     93% 0 mm 0 W/m2
00:14 1.2 °C 0.2 °C 998.5 hPa Calm     93% 0 mm 0 W/m2
00:19 1.2 °C 0.2 °C 998.5 hPa Calm     93% 0 mm 0 W/m2
00:24 1.2 °C 0.2 °C 998.9 hPa Calm     93% 0 mm 0 W/m2
00:29 1.2 °C 0.2 °C 998.9 hPa Calm     93% 0 mm 0 W/m2
00:34 1.2 °C 0.2 °C 998.9 hPa Calm     93% 0 mm 0 W/m2
00:39 1 °C 0 °C 999.2 hPa Calm     93% 0 mm 0 W/m2
00:44 0.9 °C -0.1 °C 999.2 hPa Calm     93% 0 mm 0 W/m2
00:49 0.9 °C -0.1 °C 999.2 hPa Calm     93% 0 mm 0 W/m2
00:54 0.9 °C -0.1 °C 999.2 hPa Calm     93% 0 mm 0 W/m2
00:59 0.9 °C -0.1 °C 999.2 hPa Calm     93% 0 mm 0 W/m2
01:04 0.8 °C -0.2 °C 999.5 hPa Calm     93% 0 mm 0 W/m2
01:09 0.7 °C -0.3 °C 999.5 hPa Calm     93% 0 mm 0 W/m2
01:14 0.7 °C -0.3 °C 999.5 hPa Calm     93% 0 mm 0 W/m2
01:19 0.7 °C -0.3 °C 999.5 hPa Calm     93% 0 mm 0 W/m2
01:24 0.7 °C -0.3 °C 999.5 hPa Calm     93% 0 mm 0 W/m2
01:29 0.7 °C -0.3 °C 999.5 hPa Calm     93% 0 mm 0 W/m2
01:34 0.7 °C -0.3 °C 999.5 hPa Calm     93% 0 mm 0 W/m2
01:39 0.4 °C -0.6 °C 999.9 hPa Calm     93% 0 mm 0 W/m2
01:44 0.4 °C -0.6 °C 999.9 hPa Calm     93% 0 mm 0 W/m2
01:49 0.4 °C -0.6 °C 999.9 hPa Calm     93% 0 mm 0 W/m2
01:54 0.4 °C -0.6 °C 999.9 hPa Calm     93% 0 mm 0 W/m2
01:59 0.4 °C -0.6 °C 1000.2 hPa Calm     93% 0 mm 0 W/m2
02:04 0.4 °C -0.6 °C 999.9 hPa Calm     93% 0 mm 0 W/m2
02:09 0.3 °C -0.7 °C 1000.2 hPa Calm     93% 0 mm 0 W/m2
02:14 0.3 °C -0.7 °C 1000.2 hPa Calm     93% 0 mm 0 W/m2
02:19 0.3 °C -0.7 °C 1000.2 hPa Calm     93.5% 0 mm 0 W/m2
02:24 0.2 °C -0.7 °C 1000.2 hPa Calm   1.6 km/h 93.6% 0 mm 0 W/m2
02:29 0.2 °C -0.8 °C 1000.2 hPa Calm     93% 0 mm 0 W/m2
02:34 0.1 °C -0.9 °C 1000.2 hPa Calm     93% 0 mm 0 W/m2
02:39 0.1 °C -0.9 °C 1000.6 hPa Calm     93% 0 mm 0 W/m2
02:44 0.1 °C -0.9 °C 1000.6 hPa Calm     93% 0 mm 0 W/m2
02:49 0.1 °C -0.9 °C 1000.6 hPa Calm     93% 0 mm 0 W/m2
02:54 0.1 °C -0.9 °C 1000.6 hPa Calm     93.2% 0 mm 0 W/m2
02:59 0.1 °C -0.8 °C 1000.6 hPa Calm     93.6% 0 mm 0 W/m2
03:04 0.1 °C -0.8 °C 1000.6 hPa Calm     94% 0 mm 0 W/m2
03:09 0.1 °C -0.8 °C 1000.6 hPa Calm     94% 0 mm 0 W/m2
03:14 0.2 °C -0.7 °C 1000.9 hPa Calm     94% 0 mm 0 W/m2
03:19 0.2 °C -0.7 °C 1000.9 hPa Calm     94% 0 mm 0 W/m2
03:24 0.2 °C -0.7 °C 1000.9 hPa Calm     94% 0 mm 0 W/m2
03:29 0.2 °C -0.7 °C 1001.2 hPa Calm     94% 0 mm 0 W/m2
03:34 0.2 °C -0.8 °C 1001.2 hPa Calm     94% 0 mm 0 W/m2
03:39 0.1 °C -0.8 °C 1001.2 hPa Calm     94% 0 mm 0 W/m2
03:44 0.2 °C -0.8 °C 1001.2 hPa Calm     94% 0 mm 0 W/m2
03:49 0.2 °C -0.7 °C 1001.2 hPa Calm     94% 0 mm 0 W/m2
03:54 0.2 °C -0.7 °C 1001.2 hPa Calm     94% 0 mm 0 W/m2
03:59 0.3 °C -0.6 °C 1001.2 hPa Calm     94% 0 mm 0 W/m2
04:01 0.3 °C -0.6 °C 1001.2 hPa Calm   1.6 km/h 94% 0 mm 0 W/m2
06:24 2.1 °C 1.4 °C 1003.9 hPa Calm     95% 0 mm 0 W/m2
06:25 2 °C 1.3 °C 1003.9 hPa Calm     95% 0 mm 0 W/m2
06:34 2.2 °C 1.3 °C 1003.9 hPa Calm     94% 0 mm 0 W/m2
06:39 2.3 °C 1.4 °C 1003.9 hPa West 0.2 km/h 3.2 km/h 94% 0 mm 0 W/m2
06:44 2.3 °C 1.7 °C 1003.9 hPa West 0.8 km/h 4.8 km/h 95% 0 mm 0 W/m2
06:49 2.4 °C 1.8 °C 1004.3 hPa West 0.2 km/h 1.6 km/h 95% 0 mm 0 W/m2
06:54 2.6 °C 1.9 °C 1004.3 hPa Calm   1.6 km/h 95% 0 mm 0 W/m2
06:59 2.7 °C 2 °C 1004.3 hPa West 0.2 km/h 3.2 km/h 95% 0 mm 0 W/m2
07:04 2.8 °C 2.1 °C 1004.6 hPa Calm   1.6 km/h 95% 0 mm 0 W/m2
07:09 2.9 °C 2.3 °C 1004.6 hPa Calm   1.6 km/h 95% 0 mm 0 W/m2
07:14 3.2 °C 2.6 °C 1004.6 hPa West 0.3 km/h 3.2 km/h 95% 0 mm 0 W/m2
07:19 3.9 °C 3.3 °C 1004.6 hPa West 3.2 km/h 8 km/h 95% 0 mm 0 W/m2
07:24 4.8 °C 4.1 °C 1005 hPa WNW 4.3 km/h 8 km/h 95% 0 mm 0 W/m2
07:29 5.3 °C 4.7 °C 1005 hPa NNW 5.8 km/h 14.5 km/h 95% 0.25 mm 5 W/m2
07:34 5.7 °C 5 °C 1005.3 hPa NNE 2.1 km/h 14.5 km/h 95% 0.25 mm 7 W/m2
07:39 5.8 °C 5.1 °C 1005.3 hPa NNW 3.7 km/h 9.7 km/h 95% 0.25 mm 7 W/m2
07:44 5.8 °C 5.2 °C 1005.3 hPa NW 1.1 km/h 8 km/h 95% 0.25 mm 7 W/m2
07:49 5.9 °C 5.2 °C 1005.6 hPa NW 1.9 km/h 6.4 km/h 95% 0.25 mm 9 W/m2
07:54 5.9 °C 5.2 °C 1005.6 hPa NW 2.6 km/h 9.7 km/h 95% 0.25 mm 9 W/m2
07:59 6.1 °C 5.4 °C 1005.6 hPa NW 3.9 km/h 14.5 km/h 95% 0.25 mm 11 W/m2
08:04 6.2 °C 5.4 °C 1005.6 hPa NNW 4.8 km/h 12.9 km/h 95% 0.25 mm 9 W/m2
08:09 6.2 °C 5.5 °C 1005.6 hPa NNW 4 km/h 9.7 km/h 95% 0.25 mm 9 W/m2
08:14 6.3 °C 5.6 °C 1006 hPa North 4.8 km/h 11.3 km/h 95% 0.25 mm 14 W/m2
08:19 6.3 °C 5.6 °C 1006 hPa NNW 5.6 km/h 12.9 km/h 95% 0.25 mm 25 W/m2
08:24 6.4 °C 5.7 °C 1006 hPa North 4 km/h 9.7 km/h 95% 0.25 mm 30 W/m2
08:29 6.4 °C 5.7 °C 1006 hPa NNE 5.1 km/h 14.5 km/h 95% 0.25 mm 53 W/m2
08:34 6.4 °C 5.7 °C 1006 hPa NNE 10.8 km/h 22.5 km/h 95% 0 mm 62 W/m2
08:39 6.4 °C 5.7 °C 1006.3 hPa NNE 9.2 km/h 22.5 km/h 95% 0 mm 63 W/m2
08:44 6.5 °C 5.8 °C 1006.3 hPa NNE 7.9 km/h 20.9 km/h 95% 0 mm 53 W/m2
08:49 6.6 °C 5.8 °C 1006.3 hPa North 9.3 km/h 22.5 km/h 95% 0 mm 53 W/m2
08:54 6.6 °C 5.8 °C 1006.3 hPa North 6.9 km/h 22.5 km/h 94.4% 0 mm 39 W/m2
08:59 6.6 °C 5.7 °C 1006.7 hPa North 7.2 km/h 14.5 km/h 94% 0 mm 60 W/m2
09:04 6.6 °C 5.7 °C 1006.7 hPa NNW 6.9 km/h 19.3 km/h 94% 0 mm 93 W/m2
09:09 6.7 °C 5.7 °C 1006.7 hPa NNW 10.9 km/h 17.7 km/h 94% 0 mm 74 W/m2
09:14 6.7 °C 5.6 °C 1006.7 hPa North 10.5 km/h 24.1 km/h 93% 0 mm 60 W/m2
09:19 6.7 °C 5.6 °C 1007 hPa North 6.3 km/h 20.9 km/h 93% 0 mm 102 W/m2
09:24 6.8 °C 5.6 °C 1007 hPa North 8 km/h 17.7 km/h 92.2% 0 mm 88 W/m2
09:29 6.8 °C 5.6 °C 1007 hPa North 7.9 km/h 17.7 km/h 92% 0 mm 76 W/m2
09:34 6.8 °C 5.5 °C 1007.3 hPa NNW 5.5 km/h 17.7 km/h 91.1% 0 mm 86 W/m2
09:39 6.9 °C 5.4 °C 1007.3 hPa North 9 km/h 20.9 km/h 90.8% 0 mm 81 W/m2
09:44 6.8 °C 5.4 °C 1007.7 hPa NNW 9.7 km/h 20.9 km/h 90.3% 0 mm 81 W/m2
09:49 6.8 °C 5.3 °C 1007.7 hPa NNW 10.1 km/h 24.1 km/h 90% 0 mm 81 W/m2
09:54 6.8 °C 5.2 °C 1007.7 hPa North 8.9 km/h 24.1 km/h 89.5% 0 mm 76 W/m2
09:59 6.8 °C 5.2 °C 1007.7 hPa North 10.5 km/h 17.7 km/h 89% 0 mm 114 W/m2
10:04 7 °C 5.3 °C 1007.7 hPa North 8.7 km/h 20.9 km/h 88.7% 0 mm 227 W/m2
10:09 7.2 °C 5.3 °C 1007.7 hPa North 10.3 km/h 22.5 km/h 87.8% 0 mm 248 W/m2
10:14 7.3 °C 5.3 °C 1007.7 hPa North 10.1 km/h 24.1 km/h 87% 0 mm 132 W/m2
10:19 7.3 °C 5.2 °C 1007.7 hPa NNE 15 km/h 32.2 km/h 86.5% 0 mm 132 W/m2
10:24 7.3 °C 5.1 °C 1008 hPa NNE 11.4 km/h 32.2 km/h 85.7% 0 mm 153 W/m2
10:29 7.6 °C 5.2 °C 1008 hPa NNE 8.2 km/h 22.5 km/h 85% 0 mm 202 W/m2
10:34 7.6 °C 5.2 °C 1008 hPa North 15.4 km/h 32.2 km/h 84.6% 0 mm 274 W/m2
10:39 7.7 °C 5 °C 1008.4 hPa North 15.1 km/h 25.7 km/h 83.4% 0 mm 285 W/m2
10:44 7.7 °C 4.9 °C 1008.4 hPa North 12.9 km/h 24.1 km/h 83% 0 mm 167 W/m2
10:49 7.7 °C 5 °C 1008.4 hPa NNE 10.5 km/h 22.5 km/h 83% 0 mm 304 W/m2
10:54 7.7 °C 5 °C 1008.4 hPa NNE 3.9 km/h 14.5 km/h 83% 0 mm 109 W/m2
10:59 7.7 °C 5 °C 1008.4 hPa NNE 5 km/h 12.9 km/h 83% 0 mm 123 W/m2
11:04 7.7 °C 4.9 °C 1008.4 hPa North 9 km/h 19.3 km/h 83% 0 mm 107 W/m2
11:09 7.6 °C 4.9 °C 1008.4 hPa NNE 7.4 km/h 17.7 km/h 83% 0 mm 93 W/m2
11:14 7.5 °C 4.8 °C 1008.7 hPa NNE 6.8 km/h 16.1 km/h 83% 0 mm 188 W/m2
11:19 7.6 °C 4.9 °C 1008.7 hPa NNW 5.3 km/h 16.1 km/h 83% 0 mm 188 W/m2
11:24 7.7 °C 5 °C 1008.7 hPa North 6.1 km/h 16.1 km/h 83% 0 mm 149 W/m2
11:29 7.8 °C 5 °C 1008.7 hPa North 6.6 km/h 19.3 km/h 82.3% 0 mm 139 W/m2
11:34 7.9 °C 4.9 °C 1008.7 hPa NNE 13.2 km/h 25.7 km/h 81.5% 0 mm 264 W/m2
11:39 7.9 °C 4.8 °C 1008.7 hPa North 10.3 km/h 25.7 km/h 80% 0 mm 338 W/m2
11:44 8.2 °C 4.8 °C 1008.4 hPa North 15.6 km/h 25.7 km/h 79.7% 0 mm 338 W/m2
11:49 8.2 °C 4.8 °C 1008.7 hPa NNW 12.4 km/h 25.7 km/h 79.2% 0 mm 336 W/m2
11:54 8.1 °C 4.7 °C 1008.7 hPa North 16.7 km/h 33.8 km/h 78.8% 0 mm 345 W/m2
11:59 8.1 °C 4.5 °C 1008.7 hPa North 14 km/h 29 km/h 78% 0 mm 341 W/m2
12:04 8.3 °C 4.7 °C 1008.7 hPa NNE 11.1 km/h 24.1 km/h 77.8% 0 mm 341 W/m2
12:09 8.4 °C 4.7 °C 1008.7 hPa NE 14.5 km/h 27.4 km/h 77% 0 mm 341 W/m2
12:14 8.6 °C 4.7 °C 1008.7 hPa NNE 11.7 km/h 25.7 km/h 77% 0 mm 341 W/m2
12:19 8.7 °C 4.9 °C 1008.7 hPa NNE 8.2 km/h 17.7 km/h 77.2% 0 mm 341 W/m2
12:24 8.6 °C 4.8 °C 1009 hPa North 8.9 km/h 16.1 km/h 77% 0 mm 237 W/m2
12:29 8.3 °C 4.5 °C 1009 hPa NNW 10.9 km/h 19.3 km/h 77% 0 mm 88 W/m2
12:34 8.1 °C 4.3 °C 1009 hPa North 11.3 km/h 27.4 km/h 77% 0 mm 81 W/m2
12:39 7.9 °C 4.2 °C 1009 hPa North 14 km/h 27.4 km/h 77% 0 mm 86 W/m2
12:44 7.9 °C 4.1 °C 1009 hPa North 9.7 km/h 24.1 km/h 77% 0 mm 116 W/m2
12:49 8.1 °C 4.4 °C 1009 hPa NNE 6.6 km/h 19.3 km/h 77.6% 0 mm 128 W/m2
12:54 8.1 °C 4.4 °C 1009 hPa NNE 10.3 km/h 24.1 km/h 77.6% 0 mm 97 W/m2
12:59 8.2 °C 4.3 °C 1009 hPa North 6.9 km/h 20.9 km/h 77% 0 mm 327 W/m2
13:04 8.6 °C 4.7 °C 1009 hPa North 7.6 km/h 19.3 km/h 76.6% 0 mm 325 W/m2
13:09 8.5 °C 4.5 °C 1009 hPa North 9.7 km/h 19.3 km/h 76% 0 mm 86 W/m2
13:14 8.3 °C 4.3 °C 1009.4 hPa North 8.5 km/h 20.9 km/h 76% 0 mm 102 W/m2
13:19 8.2 °C 4.2 °C 1009.4 hPa North 9.7 km/h 20.9 km/h 76% 0 mm 100 W/m2
13:24 8.2 °C 4.2 °C 1009.4 hPa NNE 8 km/h 17.7 km/h 76% 0 mm 141 W/m2
13:29 8.3 °C 4.2 °C 1009.4 hPa North 9 km/h 17.7 km/h 75.6% 0 mm 318 W/m2
13:34 8.6 °C 4.3 °C 1009.4 hPa NNE 10.1 km/h 22.5 km/h 74.8% 0 mm 339 W/m2
13:39 8.4 °C 4.1 °C 1009 hPa North 9.7 km/h 22.5 km/h 74% 0 mm 209 W/m2
13:44 8.3 °C 3.9 °C 1009 hPa NNE 9.3 km/h 19.3 km/h 74% 0 mm 139 W/m2
13:49 8.2 °C 3.8 °C 1009.4 hPa North 8.4 km/h 17.7 km/h 74% 0 mm 178 W/m2
13:54 8.2 °C 4 °C 1009.4 hPa NW 6.4 km/h 12.9 km/h 75% 0 mm 207 W/m2
13:59 8.3 °C 4.1 °C 1009.4 hPa NW 5.3 km/h 12.9 km/h 75% 0 mm 239 W/m2
14:04 8.4 °C 4.2 °C 1009.4 hPa NW 4.2 km/h 9.7 km/h 75% 0 mm 297 W/m2
14:09 8.7 °C 4.3 °C 1009.7 hPa NW 8.9 km/h 17.7 km/h 74.5% 0 mm 290 W/m2
14:14 8.8 °C 4.5 °C 1009.7 hPa North 6.9 km/h 16.1 km/h 74.1% 0 mm 301 W/m2
14:19 8.8 °C 4.4 °C 1009.7 hPa North 5.1 km/h 12.9 km/h 74% 0 mm 171 W/m2
14:24 8.7 °C 4.3 °C 1009.7 hPa North 3.1 km/h 14.5 km/h 74% 0 mm 223 W/m2
14:29 9 °C 4.7 °C 1009.7 hPa NNW 1.4 km/h 6.4 km/h 74.8% 0 mm 223 W/m2
14:34 9.1 °C 4.6 °C 1009.7 hPa NNW 6.3 km/h 16.1 km/h 73.4% 0 mm 223 W/m2
14:39 8.7 °C 4.1 °C 1010 hPa North 9.7 km/h 17.7 km/h 73% 0 mm 70 W/m2
14:44 8.3 °C 3.8 °C 1010 hPa NNE 6.1 km/h 17.7 km/h 73.1% 0 mm 42 W/m2
14:49 8.2 °C 3.8 °C 1010 hPa NNW 3.2 km/h 12.9 km/h 74% 0 mm 62 W/m2
14:54 8.1 °C 3.8 °C 1010 hPa NNW 1.6 km/h 6.4 km/h 74.5% 0 mm 69 W/m2
14:59 8.2 °C 3.9 °C 1010 hPa NNW 1.9 km/h 9.7 km/h 75% 0 mm 141 W/m2
15:04 8.2 °C 4.2 °C 1010.4 hPa NNW 6.3 km/h 12.9 km/h 75.8% 0 mm 139 W/m2
15:09 8.2 °C 4.2 °C 1010.4 hPa North 6.8 km/h 12.9 km/h 76% 0 mm 153 W/m2
15:14 8.3 °C 4.3 °C 1010.4 hPa NNW 4.5 km/h 12.9 km/h 76% 0 mm 151 W/m2
15:19 8.5 °C 4.5 °C 1010.4 hPa NW 6.3 km/h 19.3 km/h 76% 0 mm 121 W/m2
15:24 8.6 °C 4.4 °C 1010.4 hPa NW 5.8 km/h 19.3 km/h 75.2% 0.25 mm 118 W/m2
15:29 8.7 °C 4.5 °C 1010.4 hPa NW 5.6 km/h 14.5 km/h 75% 0.25 mm 111 W/m2
15:34 8.7 °C 4.6 °C 1010.7 hPa NW 6.9 km/h 14.5 km/h 75% 0.25 mm 104 W/m2
15:39 8.7 °C 4.6 °C 1010.7 hPa NW 8.9 km/h 12.9 km/h 75% 0.25 mm 72 W/m2
15:44 8.7 °C 4.4 °C 1010.7 hPa NNW 6.9 km/h 12.9 km/h 74.4% 0.25 mm 51 W/m2
15:49 8.7 °C 4.4 °C 1010.7 hPa NW 4.7 km/h 12.9 km/h 75% 0.25 mm 40 W/m2
15:54 8.6 °C 4.4 °C 1010.7 hPa NW 1.6 km/h 9.7 km/h 75% 0.25 mm 30 W/m2
15:59 8.6 °C 4.4 °C 1010.7 hPa NW 4.3 km/h 11.3 km/h 75% 0.25 mm 26 W/m2
16:04 8.3 °C 4.2 °C 1011.1 hPa NNW 5.6 km/h 12.9 km/h 75% 0.25 mm 21 W/m2
16:09 8.3 °C 4.1 °C 1011.1 hPa North 3.7 km/h 12.9 km/h 75% 0.25 mm 19 W/m2
16:14 8.2 °C 4 °C 1011.1 hPa NNW 2.9 km/h 12.9 km/h 75% 0.25 mm 23 W/m2
16:19 8.2 °C 4.1 °C 1011.1 hPa NNW 0.5 km/h 4.8 km/h 75.6% 0.25 mm 21 W/m2
16:24 8.1 °C 4.1 °C 1011.1 hPa NNW 0.6 km/h 4.8 km/h 75.7% 0.25 mm 16 W/m2
16:29 7.9 °C 3.9 °C 1011.4 hPa NNW 0.2 km/h 1.6 km/h 76% 0 mm 18 W/m2
16:34 7.8 °C 3.8 °C 1011.4 hPa Calm   1.6 km/h 76% 0 mm 9 W/m2
16:39 7.8 °C 3.9 °C 1011.4 hPa Calm   3.2 km/h 76.6% 0 mm 0 W/m2
16:44 7.7 °C 3.9 °C 1011.4 hPa NNW 0.8 km/h 4.8 km/h 77% 0 mm 0 W/m2
16:49 7.6 °C 3.7 °C 1011.4 hPa Calm   3.2 km/h 77% 0 mm 0 W/m2
16:54 7.4 °C 3.8 °C 1011.4 hPa Calm   1.6 km/h 77.9% 0 mm 0 W/m2
16:59 7.4 °C 3.8 °C 1011.4 hPa Calm   1.6 km/h 78% 0 mm 0 W/m2
17:04 7.3 °C 3.9 °C 1011.7 hPa Calm     79% 0 mm 0 W/m2
17:09 7 °C 3.7 °C 1011.7 hPa Calm     79.5% 0 mm 0 W/m2
17:14 6.6 °C 3.4 °C 1011.7 hPa NNW 0.3 km/h 1.6 km/h 80.5% 0 mm 0 W/m2
17:19 6.3 °C 3.4 °C 1011.7 hPa Calm   1.6 km/h 81.5% 0 mm 0 W/m2
17:24 6.2 °C 3.4 °C 1011.7 hPa Calm     82.3% 0 mm 0 W/m2
17:29 6.1 °C 3.3 °C 1011.7 hPa NNW 0.2 km/h 3.2 km/h 83% 0 mm 0 W/m2
17:34 5.8 °C 3.3 °C 1012.1 hPa NNW 0.5 km/h 6.4 km/h 83.6% 0 mm 0 W/m2
17:39 5.7 °C 3.2 °C 1012.1 hPa NNW 0.6 km/h 6.4 km/h 84% 0 mm 0 W/m2
17:44 5.7 °C 3.2 °C 1012.1 hPa NNW 0.6 km/h 3.2 km/h 84% 0 mm 0 W/m2
17:49 5.7 °C 3.2 °C 1012.1 hPa NNW 0.2 km/h 3.2 km/h 84% 0 mm 0 W/m2
17:54 5.7 °C 3.2 °C 1012.1 hPa NNW 0.5 km/h 3.2 km/h 84% 0 mm 0 W/m2
17:59 5.7 °C 3.2 °C 1012.4 hPa NNW 0.8 km/h 4.8 km/h 84% 0 mm 0 W/m2
18:04 5.7 °C 3.2 °C 1012.4 hPa Calm   3.2 km/h 84% 0 mm 0 W/m2
18:09 5.7 °C 3.2 °C 1012.4 hPa Calm     84% 0 mm 0 W/m2
18:14 5.6 °C 2.8 °C 1012.4 hPa Calm     83.1% 0 mm 0 W/m2
18:19 5.3 °C 2.7 °C 1012.4 hPa NNW 0.5 km/h 3.2 km/h 83% 0 mm 0 W/m2
18:24 5.3 °C 2.6 °C 1012.4 hPa Calm   1.6 km/h 83% 0 mm 0 W/m2
18:29 5.2 °C 2.6 °C 1012.4 hPa Calm   1.6 km/h 83% 0 mm 0 W/m2
18:34 5.2 °C 2.5 °C 1012.4 hPa NNW 0.5 km/h 1.6 km/h 83% 0 mm 0 W/m2
18:39 5 °C 2.4 °C 1012.4 hPa NNW 0.3 km/h 1.6 km/h 83.2% 0 mm 0 W/m2
18:44 4.9 °C 2.3 °C 1012.4 hPa NNW 0.2 km/h 1.6 km/h 83.9% 0 mm 0 W/m2
18:49 4.7 °C 2.2 °C 1012.4 hPa NNW 0.3 km/h 1.6 km/h 84% 0 mm 0 W/m2
18:54 4.6 °C 2.2 °C 1012.4 hPa NNW 1.4 km/h 3.2 km/h 84.2% 0 mm 0 W/m2
18:59 4.6 °C 2.1 °C 1012.4 hPa NNW 0.6 km/h 4.8 km/h 84.3% 0 mm 0 W/m2
19:04 4.4 °C 2.1 °C 1012.4 hPa Calm   3.2 km/h 85% 0 mm 0 W/m2
19:09 4.4 °C 2.1 °C 1012.4 hPa Calm   1.6 km/h 85% 0 mm 0 W/m2
19:14 4.4 °C 2.1 °C 1012.4 hPa Calm     85% 0 mm 0 W/m2
19:19 4.3 °C 2.1 °C 1012.4 hPa Calm     85% 0 mm 0 W/m2
19:24 4.2 °C 1.9 °C 1012.4 hPa Calm     85% 0 mm 0 W/m2
19:29 4.2 °C 1.9 °C 1012.4 hPa Calm     85% 0 mm 0 W/m2
19:34 4.1 °C 1.8 °C 1012.4 hPa Calm     85% 0 mm 0 W/m2
19:39 3.9 °C 1.6 °C 1012.8 hPa Calm     85% 0 mm 0 W/m2
19:44 3.8 °C 1.4 °C 1012.8 hPa Calm     85% 0 mm 0 W/m2
19:49 3.7 °C 1.3 °C 1012.8 hPa Calm     85% 0 mm 0 W/m2
19:54 3.5 °C 1.2 °C 1012.8 hPa Calm     85% 0 mm 0 W/m2
19:59 3.3 °C 0.9 °C 1012.8 hPa Calm     85% 0 mm 0 W/m2
20:04 3.2 °C 0.9 °C 1012.8 hPa Calm     85.5% 0 mm 0 W/m2
20:09 3.1 °C 0.9 °C 1012.8 hPa Calm     85.8% 0 mm 0 W/m2
20:14 2.9 °C 0.8 °C 1012.8 hPa Calm     86% 0 mm 0 W/m2
20:19 2.8 °C 0.7 °C 1012.8 hPa NNW 0.2 km/h 1.6 km/h 86% 0 mm 0 W/m2
20:24 2.8 °C 0.7 °C 1013.1 hPa NNW 0.5 km/h 1.6 km/h 86% 0 mm 0 W/m2
20:29 2.7 °C 0.6 °C 1013.1 hPa NNW 0.8 km/h 3.2 km/h 86.1% 0 mm 0 W/m2
20:34 2.7 °C 0.8 °C 1013.1 hPa NNW 0.3 km/h 3.2 km/h 87% 0 mm 0 W/m2
20:39 2.7 °C 0.8 °C 1013.1 hPa NNW 0.2 km/h 3.2 km/h 87% 0 mm 0 W/m2
20:44 2.7 °C 0.8 °C 1013.1 hPa Calm   3.2 km/h 87% 0 mm 0 W/m2
20:49 2.7 °C 0.8 °C 1012.8 hPa Calm     87% 0 mm 0 W/m2
20:54 2.6 °C 0.7 °C 1013.1 hPa Calm     87% 0 mm 0 W/m2
20:59 2.4 °C 0.5 °C 1013.1 hPa Calm     87% 0 mm 0 W/m2
21:04 2.4 °C 0.5 °C 1013.1 hPa Calm     87% 0 mm 0 W/m2
21:09 2.3 °C 0.4 °C 1012.8 hPa Calm   1.6 km/h 87.2% 0 mm 0 W/m2
21:14 2.2 °C 0.4 °C 1012.8 hPa NNW 1 km/h 4.8 km/h 88% 0 mm 0 W/m2
21:19 2.1 °C 0.2 °C 1012.8 hPa NNW 0.8 km/h 4.8 km/h 88% 0 mm 0 W/m2
21:24 1.9 °C 0.2 °C 1012.8 hPa NNW 3.5 km/h 6.4 km/h 88% 0 mm 0 W/m2
21:29 1.9 °C 0.2 °C 1013.1 hPa NNW 2.6 km/h 6.4 km/h 88% 0 mm 0 W/m2
21:34 1.8 °C 0.1 °C 1013.1 hPa NNW 2.7 km/h 6.4 km/h 88% 0 mm 0 W/m2
21:39 1.8 °C 0 °C 1013.1 hPa NNW 1.8 km/h 4.8 km/h 88% 0 mm 0 W/m2
21:44 1.8 °C 0.1 °C 1012.8 hPa NNW 1.3 km/h 4.8 km/h 88% 0 mm 0 W/m2
21:49 1.8 °C 0 °C 1013.1 hPa NNW 0.6 km/h 3.2 km/h 88% 0 mm 0 W/m2
21:54 1.6 °C -0.2 °C 1013.1 hPa NW 3.5 km/h 6.4 km/h 88% 0 mm 0 W/m2
21:59 1.6 °C -0.2 °C 1013.1 hPa NW 4.3 km/h 8 km/h 88.4% 0 mm 0 W/m2
22:04 1.7 °C 0.2 °C 1013.1 hPa NW 4.2 km/h 8 km/h 89% 0 mm 0 W/m2
22:09 1.8 °C 0.1 °C 1013.1 hPa NW 0.8 km/h 6.4 km/h 88.5% 0 mm 0 W/m2
22:14 1.8 °C 0.1 °C 1013.1 hPa NW 0.2 km/h 4.8 km/h 88.1% 0 mm 0 W/m2
22:19 1.8 °C 0 °C 1013.1 hPa NW 2.9 km/h 4.8 km/h 88% 0 mm 0 W/m2
22:24 1.8 °C 0 °C 1012.8 hPa NW 0.8 km/h 4.8 km/h 88% 0 mm 0 W/m2
22:29 1.8 °C 0 °C 1012.8 hPa NW 0.5 km/h 4.8 km/h 88% 0 mm 0 W/m2
22:34 1.8 °C -0.1 °C 1012.4 hPa Calm     88% 0 mm 0 W/m2
22:39 1.8 °C 0 °C 1012.4 hPa NW 0.2 km/h 1.6 km/h 88% 0 mm 0 W/m2
22:44 1.9 °C 0.1 °C 1012.1 hPa Calm   1.6 km/h 88% 0 mm 0 W/m2
22:49 1.9 °C 0.1 °C 1012.1 hPa NW 1.4 km/h 6.4 km/h 88% 0 mm 0 W/m2
22:54 1.7 °C 0.1 °C 1012.4 hPa NW 3.4 km/h 6.4 km/h 88.7% 0 mm 0 W/m2
22:59 1.7 °C 0.1 °C 1012.4 hPa NW 1.6 km/h 6.4 km/h 89% 0 mm 0 W/m2
23:04 1.7 °C 0.1 °C 1012.8 hPa NW 1.9 km/h 6.4 km/h 89% 0 mm 0 W/m2
23:09 1.7 °C 0.1 °C 1012.8 hPa NW 3.1 km/h 6.4 km/h 89% 0 mm 0 W/m2
23:14 1.8 °C 0.2 °C 1012.8 hPa NW 0.6 km/h 4.8 km/h 89% 0 mm 0 W/m2
23:19 1.8 °C 0.2 °C 1012.8 hPa Calm   3.2 km/h 89% 0 mm 0 W/m2
23:24 1.8 °C 0.2 °C 1012.8 hPa Calm     89% 0 mm 0 W/m2
23:29 1.8 °C 0.2 °C 1012.8 hPa Calm     89% 0 mm 0 W/m2
23:34 1.8 °C 0.2 °C 1012.8 hPa NW 1.1 km/h 3.2 km/h 89% 0 mm 0 W/m2
23:39 1.7 °C 0.1 °C 1012.8 hPa Calm   3.2 km/h 89% 0 mm 0 W/m2
23:44 1.7 °C 0.1 °C 1012.8 hPa Calm   1.6 km/h 89% 0 mm 0 W/m2
23:49 1.6 °C 0 °C 1012.8 hPa Calm   1.6 km/h 89% 0 mm 0 W/m2
23:54 1.6 °C -0.1 °C 1013.1 hPa NW 1.4 km/h 4.8 km/h 89% 0 mm 0 W/m2
23:59 1.5 °C -0.1 °C 1013.1 hPa NW 0.8 km/h 3.2 km/h 89% 0 mm 0 W/m2
Bath Spa Weather
Compliments of Weather Underground - 2 mb